Time;durP1;ratioP1;P1;durP2;ratioP2;P2;SDS_P1;SDS_P2;PMS_P1;PMS_P2;Temp;Humidity;BMP_temperature;BMP_pressure;BME280_temperature;BME280_humidity;BME280_pressure;Samples;Min_cycle;Max_cycle;Signal;HPM_P1;HPM_P2
2022/12/03 00:00:32;;;;;;;;;30.50;22.75;;;;;2.70;69.32;102510.31;5045007;28;11583;-68
2022/12/03 00:03:02;;;;;;;;;28.25;22.25;;;;;2.74;69.14;102509.16;5044998;28;11577;-68
2022/12/03 00:05:29;;;;;;;;;27.50;23.50;;;;;2.73;68.81;102510.94;5045843;28;11674;-67
2022/12/03 00:07:55;;;;;;;;;32.00;22.00;;;;;2.70;68.83;102512.97;5061324;28;11557;-67
2022/12/03 00:10:22;;;;;;;;;30.75;22.25;;;;;2.75;69.64;102497.53;5042039;28;11611;-67
2022/12/03 00:12:48;;;;;;;;;41.25;30.00;;;;;2.72;69.28;102498.63;5042799;28;11551;-67
2022/12/03 00:15:15;;;;;;;;;31.75;26.50;;;;;2.72;69.53;102511.06;5031466;28;11592;-68
2022/12/03 00:17:41;;;;;;;;;30.25;24.50;;;;;2.76;69.38;102517.03;5038639;28;12434;-68
2022/12/03 00:20:10;;;;;;;;;27.00;22.00;;;;;2.74;69.72;102511.81;5043996;28;11577;-67
2022/12/03 00:22:36;;;;;;;;;32.50;25.50;;;;;2.76;69.44;102507.25;5043356;28;12267;-67
2022/12/03 00:25:03;;;;;;;;;25.75;21.00;;;;;2.77;69.79;102508.09;5045497;28;11660;-67
2022/12/03 00:27:30;;;;;;;;;31.75;26.00;;;;;2.81;69.95;102509.59;5042555;28;11555;-67
2022/12/03 00:29:56;;;;;;;;;26.50;22.75;;;;;2.84;69.51;102512.91;5046265;28;11555;-67
2022/12/03 00:32:23;;;;;;;;;33.00;29.25;;;;;2.80;70.09;102495.44;5044403;28;11601;-67
2022/12/03 00:34:49;;;;;;;;;34.25;25.50;;;;;2.81;70.05;102498.97;5050138;28;11575;-67
2022/12/03 00:37:16;;;;;;;;;26.75;26.50;;;;;2.75;70.16;102494.88;5044434;28;11567;-67
2022/12/03 00:39:43;;;;;;;;;31.00;21.75;;;;;2.73;70.46;102494.16;5047429;28;11571;-67
2022/12/03 00:42:09;;;;;;;;;26.50;22.75;;;;;2.75;70.51;102500.19;5045318;28;11612;-67
2022/12/03 00:44:35;;;;;;;;;33.25;27.75;;;;;2.72;70.19;102495.13;5045532;28;11655;-67
2022/12/03 00:47:02;;;;;;;;;24.25;22.75;;;;;2.70;70.38;102487.22;5047320;28;11566;-67
2022/12/03 00:49:29;;;;;;;;;30.50;27.50;;;;;2.76;70.87;102493.94;5038837;28;11686;-67
2022/12/03 00:51:55;;;;;;;;;29.00;26.00;;;;;2.83;70.19;102491.72;5047134;28;11628;-67
2022/12/03 00:54:21;;;;;;;;;37.75;29.50;;;;;2.79;70.32;102493.72;5046394;28;11529;-67
2022/12/03 00:56:56;;;;;;;;;30.75;25.25;;;;;2.81;69.83;102488.31;5041989;28;11575;-67
2022/12/03 00:59:23;;;;;;;;;27.75;23.75;;;;;2.74;70.09;102485.22;5048764;28;11548;-67
2022/12/03 01:01:49;;;;;;;;;27.25;22.50;;;;;2.76;70.64;102491.28;5043408;28;11592;-67
2022/12/03 01:04:17;;;;;;;;;21.00;21.00;;;;;2.82;70.11;102493.53;5045381;28;11580;-67
2022/12/03 01:06:44;;;;;;;;;30.00;26.25;;;;;2.81;70.60;102489.16;5042949;28;11558;-68
2022/12/03 01:09:10;;;;;;;;;27.75;25.75;;;;;2.77;70.06;102479.69;5045600;28;11707;-67
2022/12/03 01:11:36;;;;;;;;;26.50;22.50;;;;;2.77;70.63;102474.38;5041163;28;11582;-67
2022/12/03 01:14:11;;;;;;;;;28.75;20.00;;;;;2.85;70.91;102487.16;5046974;28;11579;-67
2022/12/03 01:16:38;;;;;;;;;29.75;23.75;;;;;2.87;70.59;102479.91;5049558;28;11578;-67
2022/12/03 01:19:06;;;;;;;;;31.75;27.00;;;;;2.84;70.78;102480.16;5038516;28;11612;-66
2022/12/03 01:21:33;;;;;;;;;28.75;25.50;;;;;2.84;70.41;102477.47;5043468;28;11620;-67
2022/12/03 01:23:59;;;;;;;;;26.25;22.00;;;;;2.83;70.09;102473.94;5048736;28;11673;-67
2022/12/03 01:26:26;;;;;;;;;23.00;21.00;;;;;2.85;70.53;102488.00;5048752;28;11683;-67
2022/12/03 01:28:52;;;;;;;;;34.75;26.00;;;;;2.82;70.64;102474.06;5044951;28;11637;-67
2022/12/03 01:34:04;;;;;;;;;30.00;25.50;;;;;2.78;70.13;102473.41;5046391;28;11652;-67
2022/12/03 01:36:33;;;;;;;;;34.50;26.75;;;;;2.75;70.33;102467.44;5044508;28;11553;-67
2022/12/03 01:39:01;;;;;;;;;31.75;28.50;;;;;2.75;70.73;102468.28;5044784;28;11608;-67
2022/12/03 01:41:28;;;;;;;;;25.75;22.25;;;;;2.79;71.36;102460.97;5047291;28;11654;-67
2022/12/03 01:43:56;;;;;;;;;25.75;23.25;;;;;2.86;70.54;102470.25;5043564;28;11572;-67
2022/12/03 01:46:27;;;;;;;;;32.00;27.00;;;;;2.85;70.71;102466.72;5032612;28;11565;-68
2022/12/03 01:48:55;;;;;;;;;31.00;24.75;;;;;2.82;70.82;102472.25;5043907;28;11583;-67
2022/12/03 01:51:21;;;;;;;;;30.50;24.50;;;;;2.87;70.98;102466.63;5043822;28;11559;-67
2022/12/03 01:53:49;;;;;;;;;26.75;19.00;;;;;2.85;71.12;102452.59;5046298;28;11542;-67
2022/12/03 01:56:17;;;;;;;;;27.75;21.75;;;;;2.88;70.74;102455.91;5042273;28;11596;-67
2022/12/03 01:58:45;;;;;;;;;23.25;20.25;;;;;2.89;70.77;102454.09;5043752;28;11654;-67
2022/12/03 02:01:14;;;;;;;;;33.75;26.25;;;;;2.89;70.91;102446.09;5042286;28;11625;-67
2022/12/03 02:03:41;;;;;;;;;27.50;21.75;;;;;2.92;70.63;102448.56;5047715;28;11672;-67
2022/12/03 02:06:16;;;;;;;;;23.00;22.00;;;;;2.99;70.79;102441.84;5046025;28;11586;-67
2022/12/03 02:08:44;;;;;;;;;19.50;16.75;;;;;3.07;71.00;102449.28;5039296;28;11538;-68
2022/12/03 02:11:43;;;;;;;;;26.50;22.25;;;;;3.13;70.24;102448.88;5046886;28;11583;-68
2022/12/03 02:14:15;;;;;;;;;30.75;24.50;;;;;3.07;70.97;102436.84;5037168;28;11640;-68
2022/12/03 02:16:42;;;;;;;;;26.50;19.25;;;;;3.13;70.59;102440.91;5064355;28;11553;-67
2022/12/03 02:19:20;;;;;;;;;26.00;21.75;;;;;3.16;71.00;102441.53;5036158;28;11768;-67
2022/12/03 02:21:58;;;;;;;;;29.00;20.75;;;;;3.19;71.02;102443.13;5046743;28;11627;-67
2022/12/03 02:24:36;;;;;;;;;31.50;29.00;;;;;3.16;70.31;102446.88;5044156;28;11553;-67
2022/12/03 02:27:02;;;;;;;;;30.00;24.50;;;;;3.08;70.90;102445.66;5048026;28;11554;-66
2022/12/03 02:29:29;;;;;;;;;24.50;22.75;;;;;3.12;71.29;102442.72;5059080;28;11701;-67
2022/12/03 02:31:56;;;;;;;;;27.25;19.75;;;;;3.20;70.84;102435.06;5062745;28;11632;-67
2022/12/03 02:34:37;;;;;;;;;26.50;20.75;;;;;3.20;71.03;102447.47;5043451;28;11648;-68
2022/12/03 02:37:06;;;;;;;;;28.50;24.50;;;;;3.25;71.02;102442.72;5042996;28;11560;-67
2022/12/03 02:39:36;;;;;;;;;19.00;17.75;;;;;3.25;70.81;102442.72;5031946;28;11559;-67
2022/12/03 02:44:49;;;;;;;;;28.75;26.50;;;;;3.26;70.77;102439.09;5045429;28;11681;-67
2022/12/03 02:47:17;;;;;;;;;26.75;23.75;;;;;3.28;70.80;102438.97;5045834;28;11545;-67
2022/12/03 02:49:43;;;;;;;;;33.25;24.00;;;;;3.29;70.96;102430.03;5042782;28;11578;-66
2022/12/03 02:52:10;;;;;;;;;28.25;23.25;;;;;3.23;71.03;102432.16;5041116;28;11685;-67
2022/12/03 02:54:37;;;;;;;;;32.75;27.25;;;;;3.22;71.10;102419.81;5038419;28;11662;-69
2022/12/03 02:57:03;;;;;;;;;18.25;16.50;;;;;3.26;71.49;102420.44;5043651;28;11607;-66
2022/12/03 02:59:30;;;;;;;;;29.00;23.00;;;;;3.22;71.63;102426.94;5047326;28;11571;-69
2022/12/03 03:01:57;;;;;;;;;28.50;23.00;;;;;3.19;71.69;102420.03;5051553;28;11589;-68
2022/12/03 03:04:23;;;;;;;;;29.50;22.25;;;;;3.17;71.58;102418.44;5043119;28;11549;-68
2022/12/03 03:06:51;;;;;;;;;26.50;18.50;;;;;3.17;71.69;102421.09;5049164;28;11622;-68
2022/12/03 03:09:19;;;;;;;;;32.25;24.00;;;;;3.12;71.99;102409.91;5044965;28;11531;-68
2022/12/03 03:11:45;;;;;;;;;31.25;25.00;;;;;3.19;72.08;102413.84;5075396;22;11655;-66
2022/12/03 03:14:12;;;;;;;;;20.50;16.75;;;;;3.21;72.43;102412.78;5062621;28;11594;-66
2022/12/03 03:16:38;;;;;;;;;28.75;26.25;;;;;3.27;71.91;102410.66;5057940;28;11531;-66
2022/12/03 03:19:05;;;;;;;;;30.25;21.75;;;;;3.30;71.48;102403.31;5056727;28;11630;-67
2022/12/03 03:21:31;;;;;;;;;26.50;23.50;;;;;3.25;71.60;102410.78;5071815;28;11588;-66
2022/12/03 03:23:58;;;;;;;;;28.50;23.75;;;;;3.28;71.64;102407.03;5045712;28;11524;-67
2022/12/03 03:26:25;;;;;;;;;25.00;22.25;;;;;3.27;72.30;102405.34;5055247;28;11514;-66
2022/12/03 03:28:51;;;;;;;;;29.00;26.00;;;;;3.32;72.15;102404.06;5044699;28;11633;-67
2022/12/03 03:31:21;;;;;;;;;23.75;21.75;;;;;3.28;71.74;102404.38;5038568;28;11534;-67
2022/12/03 03:33:49;;;;;;;;;35.50;26.25;;;;;3.24;71.82;102403.72;5049289;28;11607;-64
2022/12/03 03:36:16;;;;;;;;;29.75;26.25;;;;;3.28;72.21;102399.94;5042902;28;11548;-65
2022/12/03 03:38:43;;;;;;;;;23.50;22.25;;;;;3.33;72.22;102403.09;5054547;28;11523;-67
2022/12/03 03:41:11;;;;;;;;;30.25;25.50;;;;;3.34;71.67;102396.81;5044419;28;11557;-66
2022/12/03 03:43:40;;;;;;;;;31.00;23.75;;;;;3.28;72.21;102407.03;5041951;28;11695;-66
2022/12/03 03:46:07;;;;;;;;;35.00;29.75;;;;;3.26;71.91;102393.84;5046389;28;11530;-66
2022/12/03 03:48:34;;;;;;;;;29.50;22.25;;;;;3.19;72.37;102398.72;5054076;28;11611;-66
2022/12/03 03:51:07;;;;;;;;;29.25;21.75;;;;;3.19;72.00;102404.06;5053231;28;11510;-65
2022/12/03 03:53:46;;;;;;;;;31.75;26.75;;;;;3.20;72.40;102397.81;5059222;28;12173;-66
2022/12/03 03:56:16;;;;;;;;;31.25;30.25;;;;;3.22;72.10;102392.34;5026827;28;11508;-66
2022/12/03 03:58:42;;;;;;;;;25.75;22.25;;;;;3.22;72.49;102382.56;5049834;28;11614;-66
2022/12/03 04:01:11;;;;;;;;;33.75;25.00;;;;;3.25;72.16;102391.31;5028053;28;12307;-66
2022/12/03 04:03:38;;;;;;;;;31.25;25.75;;;;;3.22;72.10;102387.03;5032897;28;11537;-66
2022/12/03 04:06:05;;;;;;;;;32.50;29.75;;;;;3.17;72.43;102376.72;5048933;28;11539;-66
2022/12/03 04:08:31;;;;;;;;;34.50;23.75;;;;;3.26;72.90;102383.19;5049274;28;11677;-66
2022/12/03 04:13:43;;;;;;;;;31.50;28.25;;;;;3.19;72.37;102395.22;5043758;28;11539;-66
2022/12/03 04:16:09;;;;;;;;;38.00;30.25;;;;;3.10;72.23;102371.94;5046174;28;11513;-65
2022/12/03 04:18:42;;;;;;;;;45.25;36.50;;;;;3.10;72.92;102371.94;5050453;28;11574;-66
2022/12/03 04:24:03;;;;;;;;;42.00;33.75;;;;;3.12;72.67;102378.88;5048204;28;11627;-67
2022/12/03 04:29:16;;;;;;;;;33.00;27.00;;;;;3.12;72.67;102370.00;5046882;28;11552;-66
2022/12/03 04:37:13;;;;;;;;;41.75;38.00;;;;;3.19;72.99;102365.94;5036133;28;11560;-66
2022/12/03 04:39:39;;;;;;;;;33.25;27.50;;;;;3.15;72.55;102373.31;5055222;28;11614;-66
2022/12/03 04:42:06;;;;;;;;;42.75;33.00;;;;;3.12;73.00;102372.66;5036482;28;11576;-65
2022/12/03 04:44:36;;;;;;;;;43.50;34.50;;;;;3.14;72.43;102368.09;5028263;28;12226;-66
2022/12/03 04:47:20;;;;;;;;;39.25;33.00;;;;;3.08;72.98;102364.06;5042994;28;11601;-66
2022/12/03 04:49:49;;;;;;;;;35.25;29.25;;;;;3.04;73.80;102359.03;5047926;28;11632;-65
2022/12/03 04:52:18;;;;;;;;;37.25;26.50;;;;;3.05;72.95;102363.44;5050259;28;11544;-64
2022/12/03 04:54:45;;;;;;;;;43.75;35.25;;;;;3.01;72.90;102354.81;5046512;28;11661;-66
2022/12/03 04:57:11;;;;;;;;;38.25;31.50;;;;;3.08;73.31;102356.09;5051035;28;11527;-67
2022/12/03 04:59:38;;;;;;;;;27.75;25.75;;;;;3.14;73.01;102354.78;5050628;28;12387;-66
2022/12/03 05:02:05;;;;;;;;;32.50;24.75;;;;;3.17;72.62;102357.25;5050953;28;11558;-65
2022/12/03 05:04:33;;;;;;;;;43.50;35.00;;;;;3.06;72.89;102354.50;5049778;28;11676;-67
2022/12/03 05:06:59;;;;;;;;;36.50;35.75;;;;;3.00;73.50;102353.13;5046160;28;11520;-66
2022/12/03 05:09:25;;;;;;;;;35.50;34.25;;;;;3.01;73.09;102359.28;5032950;28;11529;-66
2022/12/03 05:11:52;;;;;;;;;34.75;31.75;;;;;3.03;72.97;102355.53;5048734;28;11587;-67
2022/12/03 05:14:18;;;;;;;;;42.00;37.00;;;;;2.96;72.41;102354.28;5027860;28;12503;-66
2022/12/03 05:16:45;;;;;;;;;45.00;38.00;;;;;2.95;72.73;102357.88;5044038;28;12176;-66
2022/12/03 05:19:11;;;;;;;;;37.00;30.25;;;;;2.97;72.54;102354.19;5055450;28;11534;-66
2022/12/03 05:21:37;;;;;;;;;48.00;36.00;;;;;2.96;72.89;102365.78;5044969;28;12290;-66
2022/12/03 05:24:04;;;;;;;;;41.75;37.00;;;;;2.90;72.46;102350.22;5045097;28;11559;-66
2022/12/03 05:26:31;;;;;;;;;42.75;31.00;;;;;2.92;72.64;102355.47;5048194;28;11528;-66
2022/12/03 05:28:57;;;;;;;;;26.25;26.00;;;;;2.97;72.94;102348.00;5054694;28;12276;-65
2022/12/03 05:31:23;;;;;;;;;40.00;32.00;;;;;2.90;72.47;102339.59;5046506;28;11504;-66
2022/12/03 05:33:50;;;;;;;;;36.50;30.25;;;;;2.98;73.17;102345.22;5048576;28;11521;-66
2022/12/03 05:36:16;;;;;;;;;38.00;32.00;;;;;3.03;72.84;102344.91;5044336;28;11519;-66
2022/12/03 05:38:43;;;;;;;;;46.25;31.25;;;;;3.07;72.65;102351.72;5022231;28;12232;-65
2022/12/03 05:43:54;;;;;;;;;34.50;26.75;;;;;3.01;72.38;102353.97;5058986;28;11537;-67
2022/12/03 05:46:21;;;;;;;;;39.50;31.50;;;;;2.98;71.56;102347.88;5043445;28;12284;-66
2022/12/03 05:48:48;;;;;;;;;31.50;25.25;;;;;2.98;72.29;102344.38;5043131;28;12303;-65
2022/12/03 05:51:14;;;;;;;;;37.25;32.25;;;;;2.96;71.66;102349.81;5027939;28;11551;-65
2022/12/03 05:53:41;;;;;;;;;31.50;27.50;;;;;2.95;71.71;102341.94;5037988;28;11685;-65
2022/12/03 05:56:07;;;;;;;;;36.75;31.25;;;;;2.94;71.39;102341.09;5046136;28;11534;-65
2022/12/03 05:58:34;;;;;;;;;51.50;33.50;;;;;2.97;71.87;102337.38;5043637;28;11602;-66
2022/12/03 06:01:00;;;;;;;;;37.50;29.25;;;;;2.97;71.55;102332.06;5030956;28;11627;-66
2022/12/03 06:03:26;;;;;;;;;39.50;30.50;;;;;2.94;72.03;102329.59;5050935;28;11524;-66
2022/12/03 06:05:53;;;;;;;;;29.50;27.50;;;;;2.94;71.62;102327.78;5047333;28;11612;-66
2022/12/03 06:08:19;;;;;;;;;32.25;27.25;;;;;2.96;71.84;102320.56;5045138;28;11518;-66
2022/12/03 06:10:46;;;;;;;;;40.00;30.75;;;;;3.01;71.98;102327.38;5037212;28;12276;-66
2022/12/03 06:13:12;;;;;;;;;28.75;21.00;;;;;3.09;72.33;102322.34;5043622;28;11522;-66
2022/12/03 06:15:39;;;;;;;;;43.00;31.50;;;;;3.13;71.57;102314.03;5046675;28;11511;-66
2022/12/03 06:18:09;;;;;;;;;37.50;32.00;;;;;3.09;71.73;102323.19;5039764;28;12279;-66
2022/12/03 06:20:35;;;;;;;;;41.00;34.00;;;;;3.05;71.57;102321.72;5044540;28;11534;-66
2022/12/03 06:23:02;;;;;;;;;39.25;32.50;;;;;3.05;71.68;102313.72;5044294;28;11557;-66
2022/12/03 06:25:28;;;;;;;;;35.50;30.75;;;;;3.01;71.20;102320.22;5049559;28;11511;-66
2022/12/03 06:27:55;;;;;;;;;31.75;29.75;;;;;3.06;71.31;102317.25;5049299;28;11560;-65
2022/12/03 06:30:21;;;;;;;;;37.25;28.25;;;;;3.18;71.62;102308.38;5031121;28;11567;-65
2022/12/03 06:32:48;;;;;;;;;41.00;28.75;;;;;3.23;71.45;102312.41;5044603;28;11555;-67
2022/12/03 06:35:14;;;;;;;;;36.50;31.00;;;;;3.20;70.98;102309.09;5038721;28;11661;-66
2022/12/03 06:37:40;;;;;;;;;31.25;27.50;;;;;3.19;70.43;102313.59;5046018;28;11509;-66
2022/12/03 06:40:07;;;;;;;;;44.50;34.75;;;;;3.12;71.12;102307.03;5047214;28;11494;-65
2022/12/03 06:42:34;;;;;;;;;37.50;32.00;;;;;3.10;70.51;102313.41;5044425;28;12920;-66
2022/12/03 06:45:00;;;;;;;;;41.00;33.50;;;;;2.94;71.42;102314.47;5044321;28;11528;-66
2022/12/03 06:47:28;;;;;;;;;38.25;32.25;;;;;2.96;71.66;102312.59;5045838;28;11517;-66
2022/12/03 06:49:54;;;;;;;;;38.25;33.25;;;;;3.01;71.81;102308.75;5046767;28;11538;-66
2022/12/03 06:52:21;;;;;;;;;38.25;29.00;;;;;3.05;71.33;102311.06;5047876;28;11677;-65
2022/12/03 06:54:47;;;;;;;;;37.00;27.50;;;;;3.06;71.75;102310.09;5050379;28;11715;-66
2022/12/03 06:57:14;;;;;;;;;44.25;32.00;;;;;3.03;71.24;102310.31;5051530;28;12217;-67
2022/12/03 06:59:40;;;;;;;;;25.25;23.75;;;;;3.00;70.88;102317.66;5044065;28;11529;-65
2022/12/03 07:02:07;;;;;;;;;36.50;32.75;;;;;3.01;71.46;102309.59;5049710;28;11585;-67
2022/12/03 07:04:33;;;;;;;;;40.75;33.50;;;;;2.93;71.39;102314.59;5049820;28;12398;-66
2022/12/03 07:07:00;;;;;;;;;33.00;29.50;;;;;2.85;71.05;102312.47;5041835;28;11514;-67
2022/12/03 07:09:26;;;;;;;;;29.50;25.00;;;;;2.86;71.40;102314.19;5051852;28;11649;-67
2022/12/03 07:11:53;;;;;;;;;36.00;29.00;;;;;2.92;71.36;102319.09;5055673;28;11539;-67
2022/12/03 07:14:19;;;;;;;;;37.75;32.25;;;;;2.93;71.43;102326.09;5049766;28;11689;-67
2022/12/03 07:16:46;;;;;;;;;34.75;29.50;;;;;2.89;71.56;102318.44;5044263;28;11544;-67
2022/12/03 07:19:13;;;;;;;;;37.25;29.50;;;;;2.97;71.61;102319.59;5048845;28;11532;-66
2022/12/03 07:21:39;;;;;;;;;36.00;27.50;;;;;3.03;71.29;102318.28;5031200;28;11564;-67
2022/12/03 07:24:07;;;;;;;;;36.50;26.25;;;;;3.00;71.78;102312.34;5052349;28;11532;-67
2022/12/03 07:26:33;;;;;;;;;36.00;31.75;;;;;3.03;71.83;102310.31;5028194;28;12313;-66
2022/12/03 07:29:00;;;;;;;;;32.00;27.00;;;;;3.12;71.66;102316.78;5049483;28;11535;-67
2022/12/03 07:31:26;;;;;;;;;38.50;32.00;;;;;3.18;71.55;102316.38;5049223;28;11534;-67
2022/12/03 07:33:53;;;;;;;;;37.50;32.00;;;;;3.21;70.54;102319.66;5052422;28;11553;-66
2022/12/03 07:36:20;;;;;;;;;38.25;32.75;;;;;3.12;71.41;102323.00;5049953;28;12428;-67
2022/12/03 07:38:46;;;;;;;;;38.25;33.00;;;;;3.10;71.30;102324.03;5045166;28;11511;-66
2022/12/03 07:41:14;;;;;;;;;41.75;37.00;;;;;3.06;71.71;102319.91;5048891;28;11573;-67
2022/12/03 07:43:40;;;;;;;;;36.75;31.75;;;;;3.13;71.93;102318.50;5058059;28;11568;-66
2022/12/03 07:46:07;;;;;;;;;45.25;35.00;;;;;3.07;70.78;102318.94;5036974;28;11589;-65
2022/12/03 07:48:33;;;;;;;;;36.50;32.00;;;;;2.94;71.93;102324.28;5034877;28;11673;-67
2022/12/03 07:51:00;;;;;;;;;39.50;37.25;;;;;2.87;71.89;102323.84;5050259;28;11629;-66
2022/12/03 07:53:26;;;;;;;;;36.50;33.50;;;;;2.91;72.45;102317.34;5051098;28;11560;-67
2022/12/03 07:55:53;;;;;;;;;49.75;37.00;;;;;2.95;71.61;102313.53;5052078;28;11535;-67
2022/12/03 07:58:19;;;;;;;;;45.00;36.75;;;;;2.94;72.27;102311.81;5051930;28;12323;-66
2022/12/03 08:00:46;;;;;;;;;42.25;37.25;;;;;2.90;72.52;102307.69;5051355;28;11533;-64
2022/12/03 08:03:12;;;;;;;;;39.25;33.25;;;;;2.94;72.85;102316.31;5048306;28;11558;-66
2022/12/03 08:05:39;;;;;;;;;46.00;36.50;;;;;2.98;72.08;102315.97;5051404;28;11678;-66
2022/12/03 08:08:05;;;;;;;;;45.50;37.25;;;;;2.97;71.98;102322.25;5051756;28;11519;-67
2022/12/03 08:10:32;;;;;;;;;49.75;37.50;;;;;2.91;72.47;102313.84;5050126;28;12358;-66
2022/12/03 08:12:58;;;;;;;;;41.00;32.50;;;;;2.93;72.39;102317.25;5040114;28;11579;-67
2022/12/03 08:15:28;;;;;;;;;47.25;37.25;;;;;3.02;72.89;102321.94;5028024;28;11542;-66
2022/12/03 08:18:11;;;;;;;;;42.00;33.50;;;;;3.02;71.64;102315.75;5054327;28;11570;-65
2022/12/03 08:20:39;;;;;;;;;51.75;41.25;;;;;2.95;72.44;102302.88;5044540;28;11542;-67
2022/12/03 08:23:13;;;;;;;;;47.25;37.50;;;;;2.90;72.06;102310.34;5047254;28;12267;-66
2022/12/03 08:25:41;;;;;;;;;44.00;39.50;;;;;2.86;72.30;102303.53;5044277;28;11531;-66
2022/12/03 08:28:25;;;;;;;;;42.00;34.25;;;;;2.89;73.11;102308.66;5041364;28;11606;-66
2022/12/03 08:31:00;;;;;;;;;41.00;33.75;;;;;2.95;72.41;102308.19;5053264;28;11561;-67
2022/12/03 08:33:32;;;;;;;;;41.50;36.00;;;;;2.93;72.88;102304.81;5043873;28;11589;-68
2022/12/03 08:36:00;;;;;;;;;41.00;39.25;;;;;2.84;72.52;102302.81;5050015;28;11570;-67
2022/12/03 08:38:28;;;;;;;;;43.50;40.25;;;;;2.80;72.54;102290.69;5053398;28;11629;-66
2022/12/03 08:40:54;;;;;;;;;51.75;39.50;;;;;2.80;73.24;102290.69;5045511;28;11643;-67
2022/12/03 08:43:23;;;;;;;;;45.50;39.75;;;;;2.82;73.14;102291.41;5054392;28;11545;-67
2022/12/03 08:45:52;;;;;;;;;43.00;36.25;;;;;2.79;73.02;102296.94;5044682;28;11521;-66
2022/12/03 08:48:33;;;;;;;;;42.75;37.50;;;;;2.84;72.50;102292.19;5046442;28;11538;-66
2022/12/03 08:51:12;;;;;;;;;41.50;36.50;;;;;2.88;71.06;102288.34;5049709;28;12242;-67
2022/12/03 08:53:46;;;;;;;;;34.25;33.25;;;;;2.86;69.92;102297.38;5048527;28;11541;-66
2022/12/03 08:56:24;;;;;;;;;40.00;35.75;;;;;2.83;70.88;102297.59;5048146;28;11529;-67
2022/12/03 08:58:54;;;;;;;;;43.00;36.00;;;;;2.82;69.97;102293.22;5048352;28;11532;-66
2022/12/03 09:01:32;;;;;;;;;42.75;36.00;;;;;2.85;70.88;102293.03;5041496;28;11647;-67
2022/12/03 09:04:26;;;;;;;;;56.75;41.75;;;;;2.78;70.73;102295.25;5048359;28;11622;-67
2022/12/03 09:06:53;;;;;;;;;47.00;34.75;;;;;2.72;70.40;102299.19;5026717;28;11571;-67
2022/12/03 09:09:21;;;;;;;;;45.75;36.50;;;;;2.79;70.10;102304.06;5044904;28;11544;-67
2022/12/03 09:11:49;;;;;;;;;43.75;40.50;;;;;2.72;70.09;102293.03;5045672;28;11641;-69
2022/12/03 09:14:16;;;;;;;;;44.00;34.75;;;;;2.68;69.90;102291.56;5050292;28;11540;-69
2022/12/03 09:16:44;;;;;;;;;48.50;35.00;;;;;2.62;69.38;102292.81;5041188;28;11560;-68
2022/12/03 09:19:11;;;;;;;;;51.50;39.50;;;;;2.58;70.18;102291.31;5038947;28;11618;-67
2022/12/03 09:21:37;;;;;;;;;38.50;34.00;;;;;2.67;69.67;102279.19;5046642;28;11520;-68
2022/12/03 09:24:04;;;;;;;;;53.25;41.75;;;;;2.78;70.36;102289.94;5041683;28;11558;-69
2022/12/03 09:26:30;;;;;;;;;47.75;42.25;;;;;2.79;68.58;102288.97;5046882;28;12248;-69
2022/12/03 09:28:56;;;;;;;;;44.75;39.00;;;;;2.73;68.90;102290.25;5022682;28;11532;-68
2022/12/03 09:31:23;;;;;;;;;47.75;35.25;;;;;2.63;67.75;102286.56;5046483;28;11533;-68
2022/12/03 09:33:49;;;;;;;;;40.75;33.25;;;;;2.59;67.95;102289.50;5042214;28;11566;-68
2022/12/03 09:36:16;;;;;;;;;41.50;36.25;;;;;2.64;67.52;102284.75;5017690;28;11547;-67
2022/12/03 09:38:42;;;;;;;;;41.25;34.25;;;;;2.57;67.02;102296.75;5032089;28;11658;-67
2022/12/03 09:41:13;;;;;;;;;41.75;36.75;;;;;2.52;67.35;102293.56;5031240;28;11550;-66
2022/12/03 09:43:40;;;;;;;;;39.25;32.00;;;;;2.58;68.10;102290.47;5041561;28;11560;-67
2022/12/03 09:46:28;;;;;;;;;42.50;36.00;;;;;2.59;68.37;102302.81;5039644;28;11501;-68
2022/12/03 09:48:55;;;;;;;;;45.50;35.50;;;;;2.59;67.39;102285.03;5044711;28;11659;-66
2022/12/03 09:51:28;;;;;;;;;39.25;36.50;;;;;2.64;67.73;102292.72;5038692;28;11559;-67
2022/12/03 09:53:54;;;;;;;;;37.25;33.50;;;;;2.59;67.23;102286.84;5049259;28;11538;-66
2022/12/03 09:56:22;;;;;;;;;49.25;35.50;;;;;2.63;66.72;102288.34;5046553;28;12241;-66
2022/12/03 09:58:49;;;;;;;;;34.50;30.75;;;;;2.67;66.60;102290.72;5043071;28;11813;-67
2022/12/03 10:01:16;;;;;;;;;32.50;28.25;;;;;2.62;65.55;102294.63;5037322;28;11666;-67
2022/12/03 10:03:46;;;;;;;;;43.00;30.50;;;;;2.60;66.16;102285.91;5040091;28;11596;-69
2022/12/03 10:06:17;;;;;;;;;37.25;33.25;;;;;2.61;66.56;102292.94;5016502;28;11559;-67
2022/12/03 10:08:47;;;;;;;;;36.75;32.50;;;;;2.63;67.03;102283.91;5038170;28;11551;-67
2022/12/03 10:11:14;;;;;;;;;29.25;28.75;;;;;2.71;66.58;102284.22;5045498;28;11532;-68
2022/12/03 10:13:42;;;;;;;;;39.75;28.75;;;;;2.70;66.74;102290.47;5044333;28;11554;-68
2022/12/03 10:16:12;;;;;;;;;40.75;31.50;;;;;2.69;67.02;102293.25;5040424;28;11552;-67
2022/12/03 10:18:50;;;;;;;;;34.75;29.50;;;;;2.64;67.16;102279.44;5044239;28;11540;-67
2022/12/03 10:21:31;;;;;;;;;35.75;30.25;;;;;2.66;67.32;102282.81;5044920;28;11657;-68
2022/12/03 10:24:15;;;;;;;;;30.75;27.75;;;;;2.70;66.78;102279.84;5026669;28;11606;-68
2022/12/03 10:26:43;;;;;;;;;33.50;25.00;;;;;2.65;66.57;102284.63;5018606;28;11557;-69
2022/12/03 10:29:17;;;;;;;;;33.00;26.25;;;;;2.57;67.22;102286.97;5053289;28;11519;-66
2022/12/03 10:31:47;;;;;;;;;36.00;28.25;;;;;2.59;67.25;102282.38;5053268;28;11535;-67
2022/12/03 10:34:23;;;;;;;;;35.50;33.50;;;;;2.57;67.19;102283.47;5047414;28;11491;-67
2022/12/03 10:37:08;;;;;;;;;40.25;35.50;;;;;2.55;67.19;102272.06;5048324;28;12196;-68
2022/12/03 10:39:55;;;;;;;;;39.25;32.50;;;;;2.55;66.18;102274.72;5051835;28;11540;-65
2022/12/03 10:42:23;;;;;;;;;43.25;33.00;;;;;2.53;66.26;102276.66;5040054;28;11515;-67
2022/12/03 10:45:05;;;;;;;;;36.00;29.50;;;;;2.54;66.73;102265.06;5032361;28;12296;-68
2022/12/03 10:47:31;;;;;;;;;33.75;27.50;;;;;2.54;66.97;102268.56;5040689;28;11590;-67
2022/12/03 10:50:04;;;;;;;;;38.25;30.75;;;;;2.54;67.35;102262.41;5046797;28;12343;-68
2022/12/03 10:52:31;;;;;;;;;48.75;33.25;;;;;2.43;66.91;102256.06;5050781;28;11524;-67
2022/12/03 10:54:57;;;;;;;;;37.75;29.00;;;;;2.40;67.71;102245.63;5045820;28;11542;-68
2022/12/03 10:57:24;;;;;;;;;35.50;30.25;;;;;2.46;67.85;102245.19;5051667;28;11591;-67
2022/12/03 10:59:50;;;;;;;;;42.25;27.25;;;;;2.52;67.46;102243.06;5049404;28;12296;-65
2022/12/03 11:02:23;;;;;;;;;38.75;31.50;;;;;2.52;67.40;102237.75;5043612;28;11563;-66
2022/12/03 11:04:50;;;;;;;;;37.50;28.25;;;;;2.48;67.59;102242.44;5046884;28;11559;-66
2022/12/03 11:07:19;;;;;;;;;39.50;30.25;;;;;2.55;67.38;102240.19;5039765;28;11523;-65
2022/12/03 11:09:48;;;;;;;;;36.50;29.00;;;;;2.47;67.60;102238.94;5040520;28;11560;-65
2022/12/03 11:12:26;;;;;;;;;25.75;25.50;;;;;2.48;68.03;102231.81;5047472;28;11646;-64
2022/12/03 11:14:53;;;;;;;;;42.50;29.75;;;;;2.48;68.36;102230.00;5033111;28;11591;-64
2022/12/03 11:17:41;;;;;;;;;39.00;34.00;;;;;2.57;68.55;102232.97;5043910;28;11560;-65
2022/12/03 11:20:32;;;;;;;;;44.25;36.00;;;;;2.64;68.31;102232.44;5051061;28;11556;-65
2022/12/03 11:22:58;;;;;;;;;35.00;25.75;;;;;2.63;67.37;102235.16;5027013;28;11554;-65
2022/12/03 11:25:27;;;;;;;;;40.25;30.25;;;;;2.58;67.95;102232.00;5033515;28;11531;-65
2022/12/03 11:28:12;;;;;;;;;35.75;30.00;;;;;2.46;68.08;102226.56;5040358;28;11632;-65
2022/12/03 11:30:52;;;;;;;;;32.75;30.00;;;;;2.46;68.27;102229.22;5041345;28;11531;-66
2022/12/03 11:33:23;;;;;;;;;33.75;30.00;;;;;2.52;67.55;102221.81;5039705;28;11535;-68
2022/12/03 11:36:02;;;;;;;;;37.00;35.00;;;;;2.52;68.40;102217.34;5015755;28;11535;-66
2022/12/03 11:38:46;;;;;;;;;37.50;34.25;;;;;2.54;67.95;102220.72;5047904;28;12224;-66
2022/12/03 11:41:30;;;;;;;;;45.25;31.00;;;;;2.58;68.76;102206.25;5043487;28;11617;-66
2022/12/03 11:43:58;;;;;;;;;44.50;32.00;;;;;2.59;68.31;102204.44;5039780;28;11668;-66
2022/12/03 11:46:45;;;;;;;;;42.50;34.50;;;;;2.54;68.83;102210.09;5038751;28;12263;-66